createdAt,value
2022-11-01T00:01:25.849Z,37.40
2022-11-01T00:06:28.623Z,35.50
2022-11-01T00:11:31.410Z,36.05
2022-11-01T00:16:35.436Z,38.25
2022-11-01T00:21:38.364Z,36.28
2022-11-01T00:26:41.253Z,36.65
2022-11-01T00:31:45.383Z,34.95
2022-11-01T00:36:48.124Z,33.88
2022-11-01T00:41:50.752Z,33.20
2022-11-01T00:46:54.831Z,31.42
2022-11-01T00:51:57.404Z,26.33
2022-11-01T00:56:59.997Z,33.78
2022-11-01T01:02:04.094Z,33.30
2022-11-01T01:07:06.773Z,24.00
2022-11-01T01:12:09.368Z,29.40
2022-11-01T01:17:13.457Z,29.40
2022-11-01T01:22:16.109Z,29.98
2022-11-01T01:27:19.252Z,29.77
2022-11-01T01:32:24.854Z,27.40
2022-11-01T01:37:27.525Z,26.92
2022-11-01T01:42:31.773Z,26.50
2022-11-01T01:47:37.772Z,24.13
2022-11-01T01:52:45.042Z,27.63
2022-11-01T01:57:48.176Z,28.77
2022-11-01T02:02:52.352Z,27.90
2022-11-01T02:07:57.080Z,24.38
2022-11-01T02:12:59.875Z,25.38
2022-11-01T02:18:12.714Z,22.05
2022-11-01T02:23:55.638Z,20.08
2022-11-01T02:29:14.423Z,21.40
2022-11-01T02:34:25.146Z,22.20
2022-11-01T02:39:31.670Z,22.45
2022-11-01T02:44:38.387Z,22.17
2022-11-01T02:49:46.509Z,20.33
2022-11-01T02:54:53.429Z,24.00
2022-11-01T03:00:02.981Z,22.85
2022-11-01T03:05:11.423Z,22.90
2022-11-01T03:10:14.598Z,23.83
2022-11-01T03:15:23.304Z,23.63
2022-11-01T03:20:47.401Z,23.00
2022-11-01T03:25:55.409Z,22.00
2022-11-01T03:31:03.545Z,18.17
2022-11-01T03:36:14.495Z,19.75
2022-11-01T03:41:19.368Z,18.17
2022-11-01T03:46:22.308Z,14.73
2022-11-01T03:51:26.248Z,17.83
2022-11-01T03:56:28.848Z,15.77
2022-11-01T04:01:31.635Z,15.65
2022-11-01T04:06:35.745Z,15.02
2022-11-01T04:11:38.365Z,16.75
2022-11-01T04:16:58.457Z,14.63
2022-11-01T04:22:04.196Z,15.10
2022-11-01T04:27:06.919Z,17.20
2022-11-01T04:32:09.515Z,15.38
2022-11-01T04:37:14.116Z,16.35
2022-11-01T04:42:16.670Z,14.55
2022-11-01T04:47:19.378Z,14.23
2022-11-01T04:52:23.976Z,14.82
2022-11-01T04:57:26.578Z,16.30
2022-11-01T05:02:31.188Z,14.27
2022-11-01T05:07:35.369Z,14.25
2022-11-01T05:12:38.511Z,12.90
2022-11-01T05:17:42.777Z,14.18
2022-11-01T05:22:46.706Z,13.40
2022-11-01T05:27:49.274Z,13.68
2022-11-01T05:32:56.998Z,12.48
2022-11-01T05:38:02.688Z,13.48
2022-11-01T05:43:06.651Z,13.70
2022-11-01T05:48:09.337Z,13.73
2022-11-01T05:53:13.547Z,13.80
2022-11-01T05:58:16.199Z,13.88
2022-11-01T06:03:18.882Z,13.40
2022-11-01T06:08:22.855Z,13.52
2022-11-01T06:13:25.394Z,13.35
2022-11-01T06:18:28.058Z,13.60
2022-11-01T06:23:32.054Z,12.85
2022-11-01T06:28:34.855Z,15.18
2022-11-01T06:33:37.459Z,16.60
2022-11-01T06:38:41.439Z,15.10
2022-11-01T06:43:44.118Z,15.25
2022-11-01T06:48:48.895Z,14.77
2022-11-01T06:53:52.809Z,15.82
2022-11-01T06:58:55.447Z,13.38
2022-11-01T07:03:58.128Z,13.90
2022-11-01T07:09:02.454Z,13.85
2022-11-01T07:14:05.283Z,10.13
2022-11-01T07:19:07.958Z,14.40
2022-11-01T07:24:11.933Z,13.57
2022-11-01T07:29:14.537Z,14.00
2022-11-01T07:34:17.284Z,12.82
2022-11-01T07:39:23.893Z,13.57
2022-11-01T07:44:33.778Z,13.00
2022-11-01T07:49:44.416Z,12.07
2022-11-01T07:54:51.547Z,12.02
2022-11-01T07:59:54.257Z,10.60
2022-11-01T08:04:56.991Z,12.40
2022-11-01T08:10:00.994Z,11.77
2022-11-01T08:15:03.785Z,11.63
2022-11-01T08:20:07.615Z,11.02
2022-11-01T08:25:11.889Z,12.18
2022-11-01T08:35:20.441Z,9.73
2022-11-01T08:40:24.707Z,8.10
2022-11-01T08:50:49.162Z,6.88
2022-11-01T08:56:00.456Z,6.15
2022-11-01T09:01:19.585Z,6.78
2022-11-01T09:06:24.595Z,6.22
2022-11-01T09:11:35.604Z,6.03
2022-11-01T09:16:38.315Z,6.65
2022-11-01T09:21:41.137Z,5.88
2022-11-01T09:26:45.593Z,6.07
2022-11-01T09:31:56.175Z,6.10
2022-11-01T09:36:58.883Z,5.72
2022-11-01T09:42:32.123Z,5.53
2022-11-01T09:48:25.877Z,6.00
2022-11-01T09:53:45.393Z,7.25
2022-11-01T09:59:47.685Z,6.40
2022-11-01T10:05:55.330Z,6.30
2022-11-01T10:11:27.233Z,5.57
2022-11-01T10:16:53.448Z,5.22
2022-11-01T10:22:08.819Z,3.88
2022-11-01T10:27:19.790Z,4.10
2022-11-01T10:32:44.008Z,3.50
2022-11-01T10:38:04.356Z,2.97
2022-11-01T10:43:25.020Z,2.78
2022-11-01T10:48:33.774Z,2.55
2022-11-01T10:53:42.227Z,2.03
2022-11-01T10:58:50.778Z,2.15
2022-11-01T11:03:55.456Z,2.00
2022-11-01T11:08:59.450Z,1.83
2022-11-01T11:14:06.997Z,2.10
2022-11-01T11:19:19.606Z,1.80
2022-11-01T11:24:24.667Z,1.75
2022-11-01T11:29:38.892Z,1.80
2022-11-01T11:40:03.453Z,1.50
2022-11-01T11:45:18.677Z,1.30
2022-11-01T11:50:32.764Z,1.60
2022-11-01T11:55:42.150Z,1.50
2022-11-01T12:00:50.038Z,1.40
2022-11-01T12:05:59.826Z,1.50
2022-11-01T12:11:04.620Z,1.40
2022-11-01T12:16:17.125Z,2.70
2022-11-01T12:21:22.872Z,1.70
2022-11-01T12:26:29.077Z,1.70
2022-11-01T12:31:33.134Z,2.30
2022-11-01T12:36:43.675Z,1.67
2022-11-01T12:41:51.321Z,1.77
2022-11-01T12:46:58.880Z,1.67
2022-11-01T12:52:08.175Z,1.73
2022-11-01T12:57:16.077Z,1.70
2022-11-01T13:02:39.120Z,1.95
2022-11-01T13:07:54.108Z,1.73
2022-11-01T13:13:07.028Z,1.85
2022-11-01T13:18:19.975Z,2.10
2022-11-01T13:23:30.384Z,1.83
2022-11-01T13:28:49.968Z,1.73
2022-11-01T13:34:04.995Z,1.65
2022-11-01T13:39:20.579Z,1.90
2022-11-01T13:44:26.461Z,2.03
2022-11-01T13:50:19.640Z,1.88
2022-11-01T13:55:29.195Z,1.98
2022-11-01T14:00:41.462Z,1.70
2022-11-01T14:05:46.230Z,1.70
2022-11-01T14:10:52.080Z,1.90
2022-11-01T14:16:20.415Z,1.38
2022-11-01T14:21:31.390Z,1.70
2022-11-01T14:27:03.367Z,1.50
2022-11-01T14:32:07.074Z,1.50
2022-11-01T14:42:27.410Z,1.60
2022-11-01T14:47:36.628Z,1.70
2022-11-01T14:52:42.563Z,2.08
2022-11-01T14:57:48.520Z,1.20
2022-11-01T15:02:51.962Z,1.70
2022-11-01T15:07:56.609Z,1.70
2022-11-01T15:13:03.288Z,1.30
2022-11-01T15:18:14.230Z,1.65
2022-11-01T15:23:20.871Z,1.80
2022-11-01T15:28:27.169Z,2.05
2022-11-01T15:33:31.616Z,1.98
2022-11-01T15:38:36.104Z,1.75
2022-11-01T15:43:40.368Z,1.95
2022-11-01T15:53:45.660Z,2.20
2022-11-01T15:58:53.693Z,2.20
2022-11-01T16:04:01.237Z,2.17
2022-11-01T16:09:08.969Z,1.70
2022-11-01T16:14:23.992Z,1.40
2022-11-01T16:19:37.066Z,1.77
2022-11-01T16:24:39.819Z,2.08
2022-11-01T16:29:51.020Z,3.95
2022-11-01T16:34:55.304Z,4.75
2022-11-01T16:39:59.018Z,3.92
2022-11-01T16:45:02.985Z,3.40
2022-11-01T16:50:06.320Z,4.35
2022-11-01T16:55:11.202Z,3.88
2022-11-01T17:00:16.671Z,4.30
2022-11-01T17:05:23.540Z,6.07
2022-11-01T17:10:26.700Z,5.75
2022-11-01T17:15:36.123Z,6.75
2022-11-01T17:20:41.195Z,6.43
2022-11-01T17:25:47.505Z,5.75
2022-11-01T17:30:52.108Z,6.68
2022-11-01T17:35:54.755Z,7.05
2022-11-01T17:40:57.870Z,6.53
2022-11-01T17:46:02.602Z,7.13
2022-11-01T17:51:05.419Z,5.90
2022-11-01T17:56:08.402Z,8.27
2022-11-01T18:01:13.280Z,8.65
2022-11-01T18:06:16.244Z,14.50
2022-11-01T18:11:35.102Z,7.65
2022-11-01T18:16:46.815Z,5.85
2022-11-01T18:21:57.232Z,5.07
2022-11-01T18:26:59.952Z,4.75
2022-11-01T18:32:10.537Z,4.35
2022-11-01T18:37:22.673Z,4.68
2022-11-01T18:42:26.467Z,4.95
2022-11-01T18:47:35.770Z,5.80
2022-11-01T18:52:38.417Z,5.75
2022-11-01T18:57:41.108Z,5.78
2022-11-01T19:02:44.997Z,5.03
2022-11-01T19:13:24.298Z,6.25
2022-11-01T19:18:28.563Z,5.55
2022-11-01T19:23:37.299Z,5.88
2022-11-01T19:28:40.522Z,5.47
2022-11-01T19:33:48.106Z,5.72
2022-11-01T19:38:50.859Z,5.38
2022-11-01T19:43:54.952Z,5.68
2022-11-01T19:48:59.689Z,5.50
2022-11-01T19:54:02.226Z,5.45
2022-11-01T19:59:13.055Z,5.40
2022-11-01T20:04:27.399Z,5.50
2022-11-01T20:09:35.492Z,5.85
2022-11-01T20:14:39.050Z,13.82
2022-11-01T20:19:43.635Z,7.80
2022-11-01T20:24:47.147Z,7.97
2022-11-01T20:29:49.918Z,5.40
2022-11-01T20:34:53.830Z,3.08
2022-11-01T20:39:56.377Z,2.50
2022-11-01T20:44:59.119Z,2.33
2022-11-01T20:50:04.834Z,2.30
2022-11-01T20:55:09.531Z,2.20
2022-11-01T21:00:14.439Z,2.72
2022-11-01T21:05:23.800Z,1.98
2022-11-01T21:10:34.153Z,2.38
2022-11-01T21:15:38.919Z,2.55
2022-11-01T21:20:46.213Z,2.10
2022-11-01T21:25:49.842Z,2.35
2022-11-01T21:30:53.717Z,2.13
2022-11-01T21:35:57.699Z,2.00
2022-11-01T21:41:00.433Z,1.70
2022-11-01T21:46:02.989Z,2.38
2022-11-01T21:51:07.508Z,2.78
2022-11-01T22:01:13.837Z,2.38
2022-11-01T22:06:18.087Z,3.03
2022-11-01T22:11:23.643Z,2.05
2022-11-01T22:16:26.465Z,2.17
2022-11-01T22:21:31.111Z,2.58
2022-11-01T22:26:33.976Z,2.67
2022-11-01T22:31:36.578Z,2.42
2022-11-01T22:36:42.547Z,2.33
2022-11-01T22:41:45.409Z,2.00
2022-11-01T22:46:55.181Z,2.38
2022-11-01T22:52:05.146Z,2.33
2022-11-01T22:57:16.152Z,2.13
2022-11-01T23:02:26.981Z,2.58
2022-11-01T23:07:34.189Z,2.55
2022-11-01T23:12:55.376Z,1.85
2022-11-01T23:18:03.555Z,1.98
2022-11-01T23:23:18.927Z,1.42
2022-11-01T23:28:21.985Z,1.80
2022-11-01T23:33:33.709Z,1.95
2022-11-01T23:38:41.806Z,1.38
2022-11-01T23:43:44.446Z,1.80
2022-11-01T23:48:47.296Z,1.95
2022-11-01T23:53:53.912Z,2.00
2022-11-01T23:59:00.577Z,1.85
